Colfax, Washington
Current Conditions -  °F | °C
As of 7:53 PM on Saturday 22 Nov 2014 (Local Time) from KPUW Reporting Station
Few Clouds Few Clouds  
Wind Chill: 28°   Ceiling: Unl
Heat Index: 37°   Visibility: 10mi
Dew Point: 33°   Wind: 15mph
Humidity: 86%   Direction: 250°WSW
Pressure: 29.91"   Gusts: 28mph
Location:  46.88°N, 117.36°W
Report Text: KPUW 230353Z AUTO 25013G24KT 10SM FEW014 03/01 A2991 RMK AO2 SLP143 T00280006
Loading
Personal Weather Stations






























Interactive Weather Map New forecast layout! Learn more

10-Day Weather Forecast

Advertisements
Track Severe Weather on mobile